NCAR-RAP Real-Time Weather Data

Output produced by METARs form (06 May 2021  16:35 UTC)
found at http://weather.rap.ucar.edu/surface/
 
KCAR 061554Z AUTO 34006KT 10SM BKN011 OVC015 06/03 A2968 RMK AO2 RAB00E18B38E54 SLP059 P0000 T00560028
KCAR 061454Z AUTO 35007KT 10SM OVC010 05/03 A2967 RMK AO2 RAE52 CIG 007V013 SLP055 P0001 60003 T00500028 51006
KCAR 061447Z AUTO 35007KT 10SM -RA OVC010 05/03 A2967 RMK AO2 CIG 007V014 P0001 T00500028
KCAR 061354Z AUTO 36007KT 10SM -RA OVC007 04/02 A2966 RMK AO2 SLP052 P0000 T00440017
KCAR 061254Z AUTO 02006KT 10SM -RA OVC006 04/02 A2966 RMK AO2 SLP053 P0002 T00390017
KCAR 061230Z AUTO 01005KT 10SM -RA OVC006 03/02 A2966 RMK AO2 P0001 T00330017
KCAR 061154Z AUTO 02005KT 9SM -RA OVC005 03/01 A2965 RMK AO2 SLP049 P0004 60031 70077 T00280011 10050 20022 53002
KCAR 061134Z AUTO 02006KT 6SM -RA BR BKN005 OVC025 03/01 A2965 RMK AO2 P0002 T00280006
KCAR 061110Z AUTO 03006KT 10SM -RA BKN006 BKN026 OVC032 03/01 A2965 RMK AO2 P0000 T00280006
KCAR 061054Z AUTO 02008KT 10SM -RA FEW005 FEW026 OVC031 02/01 A2965 RMK AO2 SLP047 P0003 T00220006
KCAR 061025Z AUTO 02006KT 10SM -RA SCT005 OVC030 02/01 A2965 RMK AO2 P0003 T00220006
KCAR 061013Z AUTO 02007KT 10SM -RA BKN005 BKN022 OVC030 02/01 A2964 RMK AO2 P0002 T00220006
KCAR 060954Z AUTO 03006KT 10SM -RA SCT006 BKN023 OVC031 03/01 A2964 RMK AO2 SLP047 P0004 T00280006
KCAR 060952Z AUTO 02006KT 10SM -RA FEW006 BKN023 OVC031 03/01 A2964 RMK AO2 P0004
KCAR 060942Z AUTO 02006KT 10SM -RA SCT006 SCT023 OVC031 03/01 A2964 RMK AO2 P0003 T00280006
KCAR 060902Z AUTO 03006KT 10SM -RA BKN008 OVC030 03/01 A2965 RMK AO2 P0000 T00330011
KCAR 060854Z AUTO 03007KT 10SM -RA SCT009 OVC033 03/02 A2965 RMK AO2 SLP047 P0006 60020 T00330017 56010
KCAR 060809Z AUTO 04005KT 10SM -RA FEW008 OVC031 04/02 A2965 RMK AO2 P0003 T00390017
KCAR 060754Z AUTO 04006KT 9SM RA FEW010 OVC027 04/02 A2966 RMK AO2 SLP050 P0007 T00390017
KCAR 060654Z AUTO 05006KT 10SM -RA FEW006 BKN018 OVC031 05/03 A2967 RMK AO2 SLP053 P0007 T00500028
KCAR 060554Z AUTO 06005KT 9SM RA FEW007 SCT015 OVC023 05/03 A2968 RMK AO2 SLP057 P0009 60030 T00500033 10067 20050 58018
KCAR 060454Z AUTO 06005KT 9SM RA FEW005 OVC025 05/03 A2970 RMK AO2 SLP063 P0006 T00500033 401060050
KCAR 060436Z AUTO 07006KT 9SM -RA FEW005 SCT009 OVC027 05/03 A2970 RMK AO2 P0004 T00500033
KCAR 060354Z AUTO 07005KT 8SM RA BKN005 OVC032 06/03 A2972 RMK AO2 SLP069 P0004 T00560033
KCAR 060346Z AUTO 07006KT 8SM -RA BKN005 BKN009 OVC032 06/03 A2972 RMK AO2 P0003 T00560033
KCAR 060254Z AUTO 08006KT 8SM -RA BKN006 OVC011 06/04 A2973 RMK AO2 CIG 004V008 SLP075 P0006 60011 T00560039 58007
KCAR 060225Z AUTO 07006KT 7SM -RA BKN006 OVC011 06/04 A2974 RMK AO2 CIG 004V009 P0002 T00560039
KCAR 060154Z AUTO 08006KT 8SM -RA BKN005 BKN010 OVC025 06/04 A2974 RMK AO2 SLP080 P0004 T00610039
KCAR 060113Z AUTO 08007KT 5SM -RA BR BKN005 OVC024 06/04 A2975 RMK AO2 CIG 003V010 P0002 T00610044
KCAR 060054Z AUTO 09007KT 6SM -RA BR BKN007 OVC017 06/04 A2975 RMK AO2 CIG 005V011 SLP083 P0001 T00610044